createdAt,value
2019-03-27T00:02:02.292Z,102943.68
2019-03-27T00:04:30.059Z,102941.06
2019-03-27T00:06:57.826Z,102933.19
2019-03-27T00:09:25.576Z,102936.23
2019-03-27T00:11:53.327Z,102942.79
2019-03-27T00:14:21.195Z,102937.97
2019-03-27T00:16:48.951Z,102936.23
2019-03-27T00:19:16.710Z,102938.41
2019-03-27T00:21:44.486Z,102934.89
2019-03-27T00:24:12.388Z,102944.91
2019-03-27T00:26:40.074Z,102947.06
2019-03-27T00:29:07.792Z,102946.66
2019-03-27T00:31:35.551Z,102947.95
2019-03-27T00:34:03.334Z,102948.82
2019-03-27T00:36:31.270Z,102947.92
2019-03-27T00:38:59.025Z,102953.61
2019-03-27T00:41:26.931Z,102947.06
2019-03-27T00:43:54.702Z,102946.13
2019-03-27T00:46:22.411Z,102949.62
2019-03-27T00:48:50.288Z,102944.77
2019-03-27T00:51:18.030Z,102946.99
2019-03-27T00:53:45.785Z,102948.31
2019-03-27T00:56:13.557Z,102946.97
2019-03-27T00:58:41.270Z,102943.50
2019-03-27T01:01:11.154Z,102947.44
2019-03-27T01:03:38.896Z,102941.31
2019-03-27T01:06:06.760Z,102942.13
2019-03-27T01:08:34.516Z,102944.38
2019-03-27T01:11:02.370Z,102944.04
2019-03-27T01:13:30.174Z,102943.70
2019-03-27T01:15:57.936Z,102947.27
2019-03-27T01:18:25.702Z,102933.63
2019-03-27T01:20:53.423Z,102933.55
2019-03-27T01:23:21.171Z,102925.66
2019-03-27T01:25:48.903Z,102919.53
2019-03-27T01:28:16.684Z,102929.62
2019-03-27T01:30:44.406Z,102923.94
2019-03-27T01:33:12.371Z,102919.11
2019-03-27T01:35:40.089Z,102909.52
2019-03-27T01:38:07.848Z,102916.91
2019-03-27T01:40:35.730Z,102917.34
2019-03-27T01:43:03.472Z,102915.58
2019-03-27T01:45:31.227Z,102911.63
2019-03-27T01:47:58.995Z,102917.34
2019-03-27T01:50:26.726Z,102908.18
2019-03-27T01:52:54.683Z,102917.36
2019-03-27T01:55:22.477Z,102907.27
2019-03-27T01:57:50.203Z,102917.34
2019-03-27T02:00:17.994Z,102918.69
2019-03-27T02:02:45.700Z,102912.55
2019-03-27T02:05:13.467Z,102912.97
2019-03-27T02:07:41.203Z,102905.97
2019-03-27T02:10:09.086Z,102907.75
2019-03-27T02:12:36.985Z,102902.09
2019-03-27T02:15:05.619Z,102902.53
2019-03-27T02:17:33.429Z,102902.53
2019-03-27T02:20:01.242Z,102909.52
2019-03-27T02:22:28.992Z,102917.31
2019-03-27T02:24:56.813Z,102923.87
2019-03-27T02:27:24.692Z,102920.38
2019-03-27T02:29:52.520Z,102924.76
2019-03-27T02:32:21.032Z,102922.14
2019-03-27T02:34:49.148Z,102917.75
2019-03-27T02:37:16.962Z,102919.91
2019-03-27T02:39:44.749Z,102923.80
2019-03-27T02:42:12.685Z,102921.63
2019-03-27T02:44:40.426Z,102919.86
2019-03-27T02:47:08.288Z,102922.50
2019-03-27T02:49:36.028Z,102919.03
2019-03-27T02:52:03.938Z,102917.28
2019-03-27T02:54:31.754Z,102915.13
2019-03-27T02:56:59.538Z,102918.59
2019-03-27T02:59:27.306Z,102921.22
2019-03-27T03:01:55.146Z,102920.35
2019-03-27T03:04:22.926Z,102918.59
2019-03-27T03:06:50.998Z,102915.52
2019-03-27T03:09:18.856Z,102912.06
2019-03-27T03:11:46.609Z,102906.36
2019-03-27T03:14:14.350Z,102914.22
2019-03-27T03:16:43.430Z,102913.36
2019-03-27T03:19:11.421Z,102909.42
2019-03-27T03:21:39.160Z,102904.16
2019-03-27T03:24:07.316Z,102902.01
2019-03-27T03:26:35.080Z,102908.55
2019-03-27T03:29:02.830Z,102909.89
2019-03-27T03:31:30.676Z,102900.73
2019-03-27T03:33:58.423Z,102903.33
2019-03-27T03:36:26.308Z,102896.75
2019-03-27T03:38:54.032Z,102901.55
2019-03-27T03:41:21.754Z,102902.87
2019-03-27T03:43:49.570Z,102897.64
2019-03-27T03:46:17.274Z,102902.05
2019-03-27T03:48:45.173Z,102909.52
2019-03-27T03:51:12.923Z,102919.55
2019-03-27T03:53:40.740Z,102906.89
2019-03-27T03:56:08.495Z,102906.88
2019-03-27T03:58:36.579Z,102901.60
2019-03-27T04:01:04.515Z,102912.06
2019-03-27T04:03:34.388Z,102915.98
2019-03-27T04:06:02.151Z,102915.00
2019-03-27T04:08:30.097Z,102909.30
2019-03-27T04:10:57.857Z,102917.61
2019-03-27T04:13:25.621Z,102918.44
2019-03-27T04:15:53.430Z,102923.70
2019-03-27T04:18:21.169Z,102920.20
2019-03-27T04:20:48.966Z,102931.11
2019-03-27T04:23:16.662Z,102931.55
2019-03-27T04:26:08.218Z,102939.89
2019-03-27T04:28:14.214Z,102947.33
2019-03-27T04:30:41.930Z,102937.77
2019-03-27T04:33:09.699Z,102931.24
2019-03-27T04:35:37.533Z,102934.66
2019-03-27T04:38:05.353Z,102937.77
2019-03-27T04:40:33.078Z,102938.30
2019-03-27T04:43:00.865Z,102934.84
2019-03-27T04:45:28.628Z,102935.33
2019-03-27T04:47:56.486Z,102940.11
2019-03-27T04:50:24.216Z,102936.15
2019-03-27T04:52:51.997Z,102940.95
2019-03-27T04:55:19.915Z,102946.22
2019-03-27T04:57:50.498Z,102951.44
2019-03-27T05:00:18.216Z,102947.41
2019-03-27T05:02:46.702Z,102947.41
2019-03-27T05:05:14.579Z,102950.98
2019-03-27T05:07:44.835Z,102934.81
2019-03-27T05:10:12.752Z,102937.89
2019-03-27T05:12:40.633Z,102941.38
2019-03-27T05:15:08.379Z,102937.87
2019-03-27T05:17:45.788Z,102931.33
2019-03-27T05:20:06.542Z,102930.93
2019-03-27T05:22:34.352Z,102931.75
2019-03-27T05:25:02.207Z,102933.04
2019-03-27T05:27:30.109Z,102929.13
2019-03-27T05:29:57.965Z,102939.63
2019-03-27T05:32:25.795Z,102937.39
2019-03-27T05:34:53.593Z,102939.57
2019-03-27T05:37:21.731Z,102942.24
2019-03-27T05:39:49.470Z,102940.50
2019-03-27T05:42:17.206Z,102943.15
2019-03-27T05:44:45.037Z,102940.52
2019-03-27T05:47:12.918Z,102943.58
2019-03-27T05:49:40.774Z,102946.16
2019-03-27T05:52:08.478Z,102948.75
2019-03-27T05:54:36.211Z,102950.95
2019-03-27T05:57:03.969Z,102959.23
2019-03-27T05:59:31.675Z,102959.30
2019-03-27T06:01:59.596Z,102961.11
2019-03-27T06:04:27.300Z,102960.70
2019-03-27T06:06:55.184Z,102965.95
2019-03-27T06:09:23.020Z,102968.15
2019-03-27T06:11:50.865Z,102969.41
2019-03-27T06:14:18.611Z,102973.79
2019-03-27T06:16:46.419Z,102969.39
2019-03-27T06:19:14.152Z,102978.56
2019-03-27T06:21:42.068Z,102972.88
2019-03-27T06:24:12.728Z,102972.02
2019-03-27T06:26:40.536Z,102969.77
2019-03-27T06:29:08.473Z,102971.98
2019-03-27T06:31:36.405Z,102972.44
2019-03-27T06:34:04.237Z,102971.12
2019-03-27T06:36:32.165Z,102979.88
2019-03-27T06:39:00.189Z,102978.19
2019-03-27T06:41:28.140Z,102980.89
2019-03-27T06:43:55.944Z,102985.73
2019-03-27T06:46:23.828Z,102984.00
2019-03-27T06:48:52.211Z,102972.61
2019-03-27T06:51:20.067Z,102976.09
2019-03-27T06:53:47.939Z,102976.16
2019-03-27T06:56:15.792Z,102974.86
2019-03-27T06:58:54.039Z,102972.73
2019-03-27T07:01:13.460Z,102977.95
2019-03-27T07:03:41.328Z,102975.34
2019-03-27T07:06:09.693Z,102970.08
2019-03-27T07:08:37.724Z,102970.95
2019-03-27T07:11:05.722Z,102970.61
2019-03-27T07:13:33.637Z,102961.09
2019-03-27T07:16:02.249Z,102968.17
2019-03-27T07:18:39.940Z,102963.41
2019-03-27T07:20:59.945Z,102968.66
2019-03-27T07:23:27.866Z,102966.87
2019-03-27T07:25:55.696Z,102964.70
2019-03-27T07:28:23.443Z,102970.83
2019-03-27T07:30:51.332Z,102966.08
2019-03-27T07:33:19.075Z,102973.52
2019-03-27T07:35:46.954Z,102980.03
2019-03-27T07:38:14.706Z,102979.53
2019-03-27T07:40:42.531Z,102986.52
2019-03-27T07:43:10.450Z,102982.56
2019-03-27T07:45:38.189Z,102978.63
2019-03-27T07:48:05.985Z,102987.36
2019-03-27T07:50:33.746Z,102980.38
2019-03-27T07:53:01.636Z,102979.95
2019-03-27T07:55:29.401Z,102983.84
2019-03-27T07:57:57.325Z,102983.41
2019-03-27T08:00:25.089Z,102984.67
2019-03-27T08:02:52.933Z,102992.96
2019-03-27T08:05:21.107Z,102985.97
2019-03-27T08:07:48.890Z,102996.89
2019-03-27T08:10:16.643Z,102998.21
2019-03-27T08:12:44.438Z,103003.55
2019-03-27T08:15:12.184Z,103003.20
2019-03-27T08:17:40.093Z,103006.73
2019-03-27T08:20:07.867Z,103004.55
2019-03-27T08:22:36.241Z,103002.41
2019-03-27T08:25:04.424Z,103002.87
2019-03-27T08:27:32.723Z,102995.02
2019-03-27T08:30:00.987Z,102991.10
2019-03-27T08:32:28.854Z,102983.27
2019-03-27T08:34:56.606Z,102985.42
2019-03-27T08:37:24.850Z,102991.54
2019-03-27T08:39:52.770Z,102997.66
2019-03-27T08:42:20.559Z,103002.47
2019-03-27T08:44:48.249Z,103000.29
2019-03-27T08:47:16.011Z,103006.88
2019-03-27T08:49:43.737Z,103006.90
2019-03-27T08:52:11.465Z,102999.48
2019-03-27T08:54:39.287Z,103013.45
2019-03-27T08:57:07.045Z,103007.27
2019-03-27T08:59:34.776Z,103012.53
2019-03-27T09:02:02.556Z,103001.56
2019-03-27T09:04:30.714Z,103012.09
2019-03-27T09:06:58.432Z,103014.77
2019-03-27T09:09:26.228Z,103018.23
2019-03-27T09:11:53.969Z,103018.22
2019-03-27T09:14:21.717Z,103020.38
2019-03-27T09:16:49.451Z,103026.90
2019-03-27T09:19:17.667Z,103029.50
2019-03-27T09:21:45.449Z,103036.52
2019-03-27T09:24:13.210Z,103027.34
2019-03-27T09:26:41.102Z,103032.61
2019-03-27T09:29:08.939Z,103036.11
2019-03-27T09:31:44.521Z,103030.42
2019-03-27T09:34:07.007Z,103030.86
2019-03-27T09:36:34.793Z,103038.75
2019-03-27T09:39:03.903Z,103034.36
2019-03-27T09:41:31.818Z,103036.98
2019-03-27T09:43:59.711Z,103026.47
2019-03-27T09:46:27.460Z,103037.42
2019-03-27T09:48:55.208Z,103031.28
2019-03-27T09:51:22.939Z,103035.18
2019-03-27T09:53:53.198Z,103034.70
2019-03-27T09:56:20.414Z,103039.48
2019-03-27T09:58:48.236Z,103041.67
2019-03-27T10:01:16.460Z,103044.77
2019-03-27T10:03:44.286Z,103044.34
2019-03-27T10:06:12.135Z,103048.30
2019-03-27T10:08:40.069Z,103045.66
2019-03-27T10:11:07.832Z,103038.25
2019-03-27T10:13:35.590Z,103042.64
2019-03-27T10:16:03.585Z,103040.88
2019-03-27T10:18:31.329Z,103040.43
2019-03-27T10:20:59.076Z,103040.88
2019-03-27T10:23:27.699Z,103039.58
2019-03-27T10:25:55.454Z,103037.38
2019-03-27T10:28:23.513Z,103039.56
2019-03-27T10:30:51.305Z,103031.25
2019-03-27T10:33:19.041Z,103033.44
2019-03-27T10:35:46.788Z,103029.50
2019-03-27T10:38:14.660Z,103036.52
2019-03-27T10:40:42.482Z,103036.16
2019-03-27T10:43:10.538Z,103037.46
2019-03-27T10:45:39.268Z,103033.50
2019-03-27T10:48:06.983Z,103035.64
2019-03-27T10:50:34.737Z,103036.94
2019-03-27T10:53:02.639Z,103036.98
2019-03-27T10:55:30.318Z,103041.80
2019-03-27T10:57:58.073Z,103047.02
2019-03-27T11:00:25.965Z,103044.34
2019-03-27T11:02:57.807Z,103037.80
2019-03-27T11:05:25.627Z,103041.70
2019-03-27T11:07:53.579Z,103047.36
2019-03-27T11:10:21.410Z,103044.77
2019-03-27T11:12:49.177Z,103045.20
2019-03-27T11:15:17.050Z,103046.99
2019-03-27T11:17:45.032Z,103053.55
2019-03-27T11:20:12.986Z,103035.56
2019-03-27T11:22:40.698Z,103053.56
2019-03-27T11:25:08.614Z,103048.36
2019-03-27T11:27:36.390Z,103051.91
2019-03-27T11:30:04.386Z,103049.86
2019-03-27T11:32:32.214Z,103047.77
2019-03-27T11:35:00.342Z,103046.50
2019-03-27T11:37:28.187Z,103043.95
2019-03-27T11:39:56.056Z,103047.57
2019-03-27T11:42:23.968Z,103054.58
2019-03-27T11:44:51.800Z,103048.48
2019-03-27T11:47:19.605Z,103048.05
2019-03-27T11:49:47.465Z,103052.91
2019-03-27T11:52:15.265Z,103056.52
2019-03-27T11:54:43.064Z,103057.00
2019-03-27T11:57:10.836Z,103057.47
2019-03-27T11:59:38.625Z,103063.16
2019-03-27T12:02:06.407Z,103061.41
2019-03-27T12:04:34.190Z,103068.84
2019-03-27T12:07:01.934Z,103071.09
2019-03-27T12:09:29.700Z,103069.81
2019-03-27T12:11:57.512Z,103067.20
2019-03-27T12:14:25.308Z,103075.98
2019-03-27T12:16:53.234Z,103071.59
2019-03-27T12:19:21.052Z,103071.63
2019-03-27T12:21:49.527Z,103071.63
2019-03-27T12:24:17.346Z,103074.27
2019-03-27T12:26:54.680Z,103071.63
2019-03-27T12:29:22.556Z,103069.89
2019-03-27T12:31:50.434Z,103069.02
2019-03-27T12:34:18.290Z,103069.47
2019-03-27T12:36:46.223Z,103072.54
2019-03-27T12:39:14.041Z,103063.34
2019-03-27T12:41:41.792Z,103074.73
2019-03-27T12:44:09.672Z,103069.91
2019-03-27T12:46:37.558Z,103072.99
2019-03-27T12:49:05.294Z,103079.98
2019-03-27T12:51:33.037Z,103069.94
2019-03-27T12:54:00.928Z,103064.69
2019-03-27T12:56:28.644Z,103062.52
2019-03-27T12:58:56.412Z,103061.19
2019-03-27T13:01:24.191Z,103066.92
2019-03-27T13:03:51.968Z,103064.30
2019-03-27T13:06:19.763Z,103066.44
2019-03-27T13:08:49.506Z,103068.20
2019-03-27T13:11:17.198Z,103073.88
2019-03-27T13:13:44.965Z,103066.44
2019-03-27T13:16:12.700Z,103064.28
2019-03-27T13:18:40.490Z,103067.77
2019-03-27T13:21:08.258Z,103067.78
2019-03-27T13:23:35.968Z,103073.48
2019-03-27T13:26:03.754Z,103069.53
2019-03-27T13:28:31.521Z,103073.02
2019-03-27T13:30:59.247Z,103072.09
2019-03-27T13:33:26.981Z,103075.16
2019-03-27T13:35:54.802Z,103078.66
2019-03-27T13:38:22.548Z,103075.99
2019-03-27T13:40:50.353Z,103074.25
2019-03-27T13:43:18.234Z,103074.70
2019-03-27T13:45:45.986Z,103073.36
2019-03-27T13:48:13.711Z,103075.09
2019-03-27T13:50:41.497Z,103078.63
2019-03-27T13:53:09.217Z,103072.92
2019-03-27T13:55:36.963Z,103075.55
2019-03-27T13:58:04.761Z,103071.59
2019-03-27T14:00:32.657Z,103078.13
2019-03-27T14:03:00.363Z,103078.13
2019-03-27T14:05:28.096Z,103069.81
2019-03-27T14:07:55.829Z,103069.81
2019-03-27T14:10:23.574Z,103068.49
2019-03-27T14:12:51.385Z,103072.88
2019-03-27T14:15:19.242Z,103068.05
2019-03-27T14:17:47.031Z,103073.30
2019-03-27T14:20:14.828Z,103063.67
2019-03-27T14:22:42.557Z,103061.05
2019-03-27T14:25:11.382Z,103070.24
2019-03-27T14:27:39.095Z,103071.98
2019-03-27T14:30:07.170Z,103071.56
2019-03-27T14:32:34.925Z,103072.02
2019-03-27T14:35:02.645Z,103068.93
2019-03-27T14:37:30.410Z,103071.10
2019-03-27T14:39:58.150Z,103072.42
2019-03-27T14:42:26.091Z,103064.97
2019-03-27T14:44:53.853Z,103076.81
2019-03-27T14:47:21.629Z,103076.84
2019-03-27T14:49:49.510Z,103074.20
2019-03-27T14:52:17.264Z,103077.73
2019-03-27T14:54:45.038Z,103075.98
2019-03-27T14:57:12.762Z,103078.20
2019-03-27T14:59:40.563Z,103083.86
2019-03-27T15:02:08.303Z,103082.11
2019-03-27T15:04:36.027Z,103085.17
2019-03-27T15:07:03.843Z,103088.23
2019-03-27T15:09:31.620Z,103076.41
2019-03-27T15:11:59.626Z,103086.48
2019-03-27T15:14:27.512Z,103076.43
2019-03-27T15:16:55.605Z,103082.14
2019-03-27T15:19:23.414Z,103075.94
2019-03-27T15:21:54.828Z,103081.69
2019-03-27T15:24:21.847Z,103080.80
2019-03-27T15:26:49.919Z,103088.23
2019-03-27T15:29:17.784Z,103086.08
2019-03-27T15:31:45.500Z,103086.96
2019-03-27T15:34:13.284Z,103083.00
2019-03-27T15:36:41.011Z,103084.37
2019-03-27T15:39:08.823Z,103080.41
2019-03-27T15:41:36.666Z,103087.85
2019-03-27T15:44:04.495Z,103083.02
2019-03-27T15:46:32.274Z,103082.14
2019-03-27T15:49:00.067Z,103083.02
2019-03-27T15:51:27.880Z,103087.42
2019-03-27T15:53:55.700Z,103089.17
2019-03-27T15:56:23.421Z,103083.91
2019-03-27T15:58:51.141Z,103091.78
2019-03-27T16:01:18.939Z,103084.33
2019-03-27T16:03:46.734Z,103086.10
2019-03-27T16:06:14.988Z,103086.08
2019-03-27T16:08:42.899Z,103093.97
2019-03-27T16:11:12.314Z,103090.01
2019-03-27T16:13:40.067Z,103093.04
2019-03-27T16:16:08.042Z,103098.75
2019-03-27T16:18:35.937Z,103089.97
2019-03-27T16:21:03.647Z,103095.69
2019-03-27T16:23:32.371Z,103099.61
2019-03-27T16:26:01.422Z,103099.17
2019-03-27T16:28:29.181Z,103097.00
2019-03-27T16:30:56.897Z,103099.16
2019-03-27T16:33:26.105Z,103098.28
2019-03-27T16:35:53.960Z,103105.27
2019-03-27T16:38:21.692Z,103104.41
2019-03-27T16:40:49.711Z,103108.35
2019-03-27T16:43:17.863Z,103105.72
2019-03-27T16:45:45.827Z,103106.58
2019-03-27T16:48:14.690Z,103106.62
2019-03-27T16:50:42.967Z,103110.58
2019-03-27T16:53:10.750Z,103111.86
2019-03-27T16:55:38.449Z,103107.49
2019-03-27T16:58:06.275Z,103111.44
2019-03-27T17:00:34.276Z,103103.55
2019-03-27T17:03:02.513Z,103111.02
2019-03-27T17:05:30.283Z,103107.06
2019-03-27T17:07:58.624Z,103109.28
2019-03-27T17:10:26.519Z,103108.83
2019-03-27T17:12:54.396Z,103109.72
2019-03-27T17:15:22.147Z,103115.40
2019-03-27T17:17:49.924Z,103113.21
2019-03-27T17:20:17.963Z,103113.21
2019-03-27T17:22:45.700Z,103114.52
2019-03-27T17:25:13.459Z,103121.97
2019-03-27T17:27:41.299Z,103124.14
2019-03-27T17:30:09.194Z,103121.95
2019-03-27T17:32:37.067Z,103121.11
2019-03-27T17:35:05.216Z,103127.21
2019-03-27T17:37:33.015Z,103126.75
2019-03-27T17:40:00.875Z,103120.64
2019-03-27T17:42:28.826Z,103118.42
2019-03-27T17:44:56.655Z,103125.88
2019-03-27T17:47:24.594Z,103131.13
2019-03-27T17:49:52.383Z,103130.67
2019-03-27T17:52:20.166Z,103133.30
2019-03-27T17:54:47.966Z,103138.97
2019-03-27T17:57:15.830Z,103136.34
2019-03-27T17:59:43.741Z,103141.19
2019-03-27T18:02:11.467Z,103140.72
2019-03-27T18:04:39.228Z,103145.98
2019-03-27T18:07:07.093Z,103154.28
2019-03-27T18:09:35.009Z,103157.80
2019-03-27T18:12:02.770Z,103160.91
2019-03-27T18:14:30.584Z,103161.75
2019-03-27T18:16:58.990Z,103162.63
2019-03-27T18:19:26.819Z,103167.02
2019-03-27T18:22:07.083Z,103171.87
2019-03-27T18:24:24.576Z,103168.32
2019-03-27T18:26:52.764Z,103180.61
2019-03-27T18:29:20.558Z,103173.58
2019-03-27T18:31:48.314Z,103175.37
2019-03-27T18:34:16.136Z,103173.59
2019-03-27T18:36:43.926Z,103175.83
2019-03-27T18:39:11.837Z,103176.23
2019-03-27T18:41:39.596Z,103180.62
2019-03-27T18:44:07.496Z,103177.10
2019-03-27T18:46:35.295Z,103182.34
2019-03-27T18:49:03.109Z,103176.20
2019-03-27T18:51:30.871Z,103177.94
2019-03-27T18:54:00.099Z,103180.98
2019-03-27T18:56:28.280Z,103174.89
2019-03-27T18:58:55.994Z,103179.27
2019-03-27T19:01:23.776Z,103186.28
2019-03-27T19:03:51.791Z,103185.01
2019-03-27T19:06:20.385Z,103179.80
2019-03-27T19:08:48.357Z,103180.71
2019-03-27T19:11:19.500Z,103184.22
2019-03-27T19:13:47.627Z,103179.86
2019-03-27T19:16:15.470Z,103177.69
2019-03-27T19:18:47.331Z,103174.22
2019-03-27T19:21:15.510Z,103179.50
2019-03-27T19:23:50.478Z,103179.92
2019-03-27T19:26:19.456Z,103184.73
2019-03-27T19:28:47.746Z,103186.05
2019-03-27T19:31:15.602Z,103187.80
2019-03-27T19:33:45.211Z,103186.92
2019-03-27T19:36:13.369Z,103196.55
2019-03-27T19:38:43.970Z,103189.95
2019-03-27T19:41:16.917Z,103190.39
2019-03-27T19:43:45.060Z,103190.87
2019-03-27T19:46:13.319Z,103200.07
2019-03-27T19:48:42.073Z,103195.67
2019-03-27T19:51:11.449Z,103187.33
2019-03-27T19:53:39.569Z,103192.19
2019-03-27T19:56:07.572Z,103192.63
2019-03-27T19:58:35.648Z,103202.72
2019-03-27T20:01:05.287Z,103202.30
2019-03-27T20:03:34.824Z,103200.52
2019-03-27T20:06:03.001Z,103205.77
2019-03-27T20:08:30.891Z,103203.18
2019-03-27T20:10:58.670Z,103211.06
2019-03-27T20:13:26.582Z,103208.44
2019-03-27T20:15:54.467Z,103205.81
2019-03-27T20:18:22.485Z,103199.66
2019-03-27T20:20:50.360Z,103205.81
2019-03-27T20:23:18.508Z,103204.45
2019-03-27T20:25:46.420Z,103201.45
2019-03-27T20:28:14.268Z,103196.64
2019-03-27T20:30:42.079Z,103199.23
2019-03-27T20:33:09.869Z,103202.78
2019-03-27T20:35:37.728Z,103204.52
2019-03-27T20:38:05.835Z,103210.19
2019-03-27T20:40:33.636Z,103208.02
2019-03-27T20:43:01.634Z,103210.20
2019-03-27T20:45:29.453Z,103209.33
2019-03-27T20:47:57.221Z,103204.52
2019-03-27T20:50:26.940Z,103206.25
2019-03-27T20:52:54.698Z,103211.92
2019-03-27T20:55:30.299Z,103210.16
2019-03-27T20:57:52.347Z,103211.03
2019-03-27T21:00:20.139Z,103215.83
2019-03-27T21:02:48.052Z,103205.77
2019-03-27T21:05:15.827Z,103207.52
2019-03-27T21:07:44.254Z,103203.55
2019-03-27T21:10:12.300Z,103201.38
2019-03-27T21:12:40.346Z,103201.80
2019-03-27T21:15:08.280Z,103200.89
2019-03-27T21:17:37.438Z,103206.17
2019-03-27T21:20:05.724Z,103201.36
2019-03-27T21:22:33.888Z,103208.80
2019-03-27T21:25:08.468Z,103210.56
2019-03-27T21:27:31.627Z,103212.36
2019-03-27T21:29:59.405Z,103210.61
2019-03-27T21:32:27.225Z,103207.52
2019-03-27T21:34:55.132Z,103205.31
2019-03-27T21:37:22.919Z,103209.28
2019-03-27T21:39:50.818Z,103204.91
2019-03-27T21:42:19.148Z,103209.72
2019-03-27T21:44:51.164Z,103210.98
2019-03-27T21:47:22.751Z,103214.05
2019-03-27T21:49:50.693Z,103215.74
2019-03-27T21:52:18.573Z,103219.66
2019-03-27T21:54:46.554Z,103215.28
2019-03-27T21:57:14.365Z,103215.77
2019-03-27T21:59:42.381Z,103221.45
2019-03-27T22:02:10.717Z,103222.78
2019-03-27T22:04:38.688Z,103220.98
2019-03-27T22:07:06.578Z,103225.86
2019-03-27T22:09:34.500Z,103222.41
2019-03-27T22:12:02.442Z,103230.72
2019-03-27T22:14:30.258Z,103234.19
2019-03-27T22:17:01.540Z,103239.45
2019-03-27T22:19:29.616Z,103240.32
2019-03-27T22:21:57.586Z,103238.17
2019-03-27T22:24:25.422Z,103242.11
2019-03-27T22:26:53.243Z,103239.44
2019-03-27T22:29:21.161Z,103243.41
2019-03-27T22:31:49.227Z,103246.91
2019-03-27T22:34:17.135Z,103239.02
2019-03-27T22:36:45.031Z,103243.80
2019-03-27T22:39:12.988Z,103243.41
2019-03-27T22:41:40.854Z,103242.13
2019-03-27T22:44:08.696Z,103243.45
2019-03-27T22:46:36.616Z,103237.72
2019-03-27T22:49:04.275Z,103237.23
2019-03-27T22:51:32.174Z,103237.66
2019-03-27T22:53:59.995Z,103235.03
2019-03-27T22:56:27.764Z,103243.36
2019-03-27T22:58:55.690Z,103241.61
2019-03-27T23:01:23.477Z,103247.73
2019-03-27T23:03:51.231Z,103249.05
2019-03-27T23:06:19.104Z,103245.95
2019-03-27T23:08:46.954Z,103242.48
2019-03-27T23:11:14.741Z,103256.06
2019-03-27T23:13:42.503Z,103253.45
2019-03-27T23:16:10.289Z,103260.05
2019-03-27T23:18:37.974Z,103260.45
2019-03-27T23:21:05.726Z,103269.65
2019-03-27T23:23:33.467Z,103272.72
2019-03-27T23:26:03.207Z,103266.63
2019-03-27T23:28:30.989Z,103271.41
2019-03-27T23:30:58.846Z,103264.39
2019-03-27T23:33:26.743Z,103265.31
2019-03-27T23:35:54.605Z,103265.75
2019-03-27T23:38:22.445Z,103269.69
2019-03-27T23:40:50.424Z,103270.11
2019-03-27T23:43:18.223Z,103269.72
2019-03-27T23:45:46.131Z,103267.50
2019-03-27T23:48:13.989Z,103271.45
2019-03-27T23:50:41.863Z,103267.05
2019-03-27T23:53:09.982Z,103274.08
2019-03-27T23:55:38.208Z,103264.05
2019-03-27T23:58:06.104Z,103266.70
